createdAt,value
2017-05-09T00:29:37.769Z,95622.62
2017-05-09T00:36:07.812Z,95604.98
2017-05-09T00:37:43.386Z,95605.83
2017-05-09T00:52:42.946Z,95604.13
2017-05-09T01:09:09.553Z,95601.78
2017-05-09T01:43:49.176Z,95601.72
2017-05-09T01:51:19.387Z,95602.81
2017-05-09T01:59:14.485Z,95602.05
2017-05-09T02:03:33.619Z,95593.94
2017-05-09T02:20:59.496Z,95594.46
2017-05-09T02:36:21.347Z,95588.94
2017-05-09T02:48:21.281Z,95587.05
2017-05-09T02:50:36.054Z,95586.97
2017-05-09T02:53:37.494Z,95583.84
2017-05-09T02:59:16.092Z,95580.04
2017-05-09T03:01:02.438Z,95578.77
2017-05-09T03:17:05.584Z,95574.58
2017-05-09T03:19:01.143Z,95571.69
2017-05-09T03:35:56.549Z,95567.05
2017-05-09T03:53:55.006Z,95566.8
2017-05-09T03:55:35.923Z,95574.51
2017-05-09T04:11:07.331Z,95572.17
2017-05-09T04:13:50.396Z,95577.31
2017-05-09T04:15:16.091Z,95576.12
2017-05-09T04:28:10.661Z,95572.72
2017-05-09T04:31:00.240Z,95570
2017-05-09T04:33:54.581Z,95576.08
2017-05-09T04:36:43.991Z,95573.68
2017-05-09T04:38:15.482Z,95577.03
2017-05-09T04:52:24.469Z,95577.91
2017-05-09T04:55:14.999Z,95569.55
2017-05-09T04:57:01.608Z,95570.46
2017-05-09T04:59:54.522Z,95573.95
2017-05-09T05:03:40.416Z,95574.11
2017-05-09T05:14:15.617Z,95577.38
2017-05-09T05:15:39.622Z,95573.78
2017-05-09T05:17:09.860Z,95577.09
2017-05-09T05:18:47.612Z,95575.65
2017-05-09T05:20:16.994Z,95572.49
2017-05-09T05:23:55.902Z,95574.13
2017-05-09T05:38:36.714Z,95573.37
2017-05-09T05:40:01.701Z,95571
2017-05-09T05:44:19.006Z,95568.98
2017-05-09T05:57:18.818Z,95568.18
2017-05-09T06:00:11.426Z,95568.03
2017-05-09T06:07:29.364Z,95573.39
2017-05-09T06:12:58.635Z,95572.97
2017-05-09T06:20:02.277Z,95575.11
2017-05-09T06:24:47.338Z,95572.4
2017-05-09T06:29:21.195Z,95579.65
2017-05-09T06:32:05.571Z,95579
2017-05-09T06:35:18.366Z,95583.91
2017-05-09T06:38:26.180Z,95581.65
2017-05-09T06:39:50.588Z,95575.11
2017-05-09T06:41:16.038Z,95575.39
2017-05-09T06:42:43.637Z,95576.3
2017-05-09T06:44:08.375Z,95571.84
2017-05-09T06:47:43.982Z,95574.34
2017-05-09T06:49:16.581Z,95574.88
2017-05-09T06:50:46.222Z,95576.38
2017-05-09T06:52:13.005Z,95578.88
2017-05-09T06:53:42.456Z,95585.33
2017-05-09T06:55:19.013Z,95589.91
2017-05-09T06:56:45.257Z,95584.8
2017-05-09T06:58:10.145Z,95585.95
2017-05-09T06:59:35.268Z,95589.8
2017-05-09T07:01:05.604Z,95592.88
2017-05-09T07:03:44.366Z,95590.84
2017-05-09T07:05:09.913Z,95588.85
2017-05-09T07:06:35.623Z,95586.82
2017-05-09T07:09:37.593Z,95579.25
2017-05-09T07:11:03.461Z,95580.55
2017-05-09T07:12:29.252Z,95580.78
2017-05-09T07:15:30.369Z,95578.7
2017-05-09T07:16:58.127Z,95583.67
2017-05-09T07:18:33.336Z,95581.44
2017-05-09T07:20:05.249Z,95586.69
2017-05-09T07:21:34.075Z,95588.31
2017-05-09T07:23:14.473Z,95586.17
2017-05-09T07:24:39.997Z,95587.88
2017-05-09T07:26:06.773Z,95589.53
2017-05-09T07:27:33.043Z,95592.4
2017-05-09T07:28:59.447Z,95590.67
2017-05-09T07:30:36.080Z,95590.25
2017-05-09T07:32:01.855Z,95591.44
2017-05-09T07:35:11.986Z,95589.09
2017-05-09T07:36:48.900Z,95583.75
2017-05-09T07:38:29.435Z,95582.2
2017-05-09T07:40:13.607Z,95579.19
2017-05-09T07:42:02.471Z,95576.76
2017-05-09T07:43:42.769Z,95578.45
2017-05-09T07:45:39.114Z,95574.16
2017-05-09T07:50:48.700Z,95574.45
2017-05-09T07:52:32.296Z,95573.83
2017-05-09T07:55:55.666Z,95574.31
2017-05-09T07:57:28.948Z,95568.2
2017-05-09T07:59:03.875Z,95564.23
2017-05-09T08:00:29.612Z,95559.16
2017-05-09T08:02:08.444Z,95560.86
2017-05-09T08:03:34.417Z,95557.41
2017-05-09T08:05:04.384Z,95562.27
2017-05-09T08:06:50.265Z,95562.13
2017-05-09T08:08:16.150Z,95567.08
2017-05-09T08:09:43.885Z,95568.67
2017-05-09T08:11:23.442Z,95565.13
2017-05-09T08:12:58.550Z,95565.18
2017-05-09T08:27:42.793Z,95572.47
2017-05-09T08:31:10.795Z,95574.97
2017-05-09T08:34:06.803Z,95580.39
2017-05-09T08:35:44.287Z,95577.6
2017-05-09T08:38:36.017Z,95579.87
2017-05-09T08:40:16.493Z,95583.48
2017-05-09T08:42:00.205Z,95583.93
2017-05-09T08:45:21.221Z,95585.56
2017-05-09T08:59:51.565Z,95572.24
2017-05-09T09:01:32.011Z,95572.93
2017-05-09T09:03:30.529Z,95574.3
2017-05-09T09:06:56.740Z,95583.37
2017-05-09T09:11:07.387Z,95580.24
2017-05-09T09:12:35.392Z,95575.57
2017-05-09T09:14:03.518Z,95575.27
2017-05-09T09:19:11.377Z,95575.27
2017-05-09T09:20:50.465Z,95577.09
2017-05-09T09:23:59.600Z,95574.37
2017-05-09T09:25:25.715Z,95576.1
2017-05-09T09:26:59.860Z,95572.89
2017-05-09T09:28:38.647Z,95566.42
2017-05-09T09:30:25.213Z,95564.75
2017-05-09T09:31:54.478Z,95567.38
2017-05-09T09:33:22.710Z,95562.91
2017-05-09T09:34:49.035Z,95563.51
2017-05-09T09:36:29.543Z,95563.51
2017-05-09T09:52:33.096Z,95569.84
2017-05-09T09:54:27.325Z,95572.53
2017-05-09T09:56:12.524Z,95570.28
2017-05-09T09:57:39.807Z,95567.88
2017-05-09T09:59:31.562Z,95573.14
2017-05-09T10:00:59.774Z,95567.97
2017-05-09T10:15:26.000Z,95563.26
2017-05-09T10:17:11.777Z,95564.72
2017-05-09T10:20:21.122Z,95559.45
2017-05-09T10:21:59.120Z,95561.81
2017-05-09T10:24:49.986Z,95561.64
2017-05-09T10:26:17.277Z,95559.61
2017-05-09T10:27:54.186Z,95556.47
2017-05-09T10:29:20.369Z,95556.1
2017-05-09T10:30:47.130Z,95555.86
2017-05-09T10:33:59.210Z,95556.98
2017-05-09T10:36:41.510Z,95545.34
2017-05-09T10:39:45.124Z,95538.48
2017-05-09T10:41:27.791Z,95538.25
2017-05-09T10:43:06.590Z,95542.59
2017-05-09T10:44:47.393Z,95535.09
2017-05-09T10:46:40.979Z,95533.63
2017-05-09T10:48:13.809Z,95533.81
2017-05-09T10:50:06.805Z,95536.69
2017-05-09T10:51:57.010Z,95529.71
2017-05-09T10:54:46.960Z,95519.55
2017-05-09T10:56:13.636Z,95507.79
2017-05-09T10:57:43.690Z,95506.05
2017-05-09T11:02:56.770Z,95494.29
2017-05-09T11:04:33.742Z,95496.67
2017-05-09T11:09:57.229Z,95488.5
2017-05-09T11:14:26.071Z,95497.63
2017-05-09T11:15:46.000Z,95494.81
2017-05-09T11:17:36.503Z,95498.3
2017-05-09T11:19:12.784Z,95502.78
2017-05-09T12:11:08.979Z,95487.64
2017-05-09T13:15:38.254Z,95455.75
2017-05-09T13:17:02.181Z,95454.31
2017-05-09T13:18:24.162Z,95449.44
2017-05-09T13:19:49.548Z,95443.91
2017-05-09T13:21:14.350Z,95439.56
2017-05-09T13:22:36.289Z,95435.19
2017-05-09T13:23:58.152Z,95425.88
2017-05-09T13:25:19.995Z,95418.86
2017-05-09T13:26:41.890Z,95420.83
2017-05-09T13:28:04.234Z,95428.08
2017-05-09T13:29:26.470Z,95428.38
2017-05-09T13:30:48.425Z,95418.31
2017-05-09T13:32:10.484Z,95419.45
2017-05-09T13:33:32.587Z,95423.02
2017-05-09T13:34:55.171Z,95420.7
2017-05-09T13:36:37.203Z,95423.92
2017-05-09T13:38:11.278Z,95429.41
2017-05-09T13:39:43.066Z,95418.69
2017-05-09T13:41:08.117Z,95414.33
2017-05-09T13:42:32.028Z,95404.95
2017-05-09T13:43:56.898Z,95402.96
2017-05-09T14:03:16.212Z,0
2017-05-09T14:04:38.193Z,0
2017-05-09T14:06:00.050Z,0
2017-05-09T14:07:22.135Z,0
2017-05-09T14:08:44.195Z,0
2017-05-09T14:10:06.197Z,0
2017-05-09T14:11:28.137Z,0
2017-05-09T14:12:50.082Z,0
2017-05-09T14:14:12.001Z,0
2017-05-09T14:15:33.848Z,0
2017-05-09T14:16:55.681Z,0
2017-05-09T14:18:17.650Z,0
2017-05-09T14:19:40.081Z,0
2017-05-09T14:21:01.937Z,0
2017-05-09T14:22:23.789Z,0
2017-05-09T14:23:45.751Z,0
2017-05-09T14:25:07.606Z,0
2017-05-09T14:26:29.482Z,0
2017-05-09T14:27:52.888Z,0
2017-05-09T14:29:15.293Z,0
2017-05-09T14:30:37.236Z,0
2017-05-09T14:31:59.307Z,0
2017-05-09T14:33:21.292Z,0
2017-05-09T14:34:43.640Z,0
2017-05-09T14:36:08.124Z,0
2017-05-09T14:37:30.547Z,0
2017-05-09T14:38:52.546Z,0
2017-05-09T14:40:14.516Z,0
2017-05-09T14:41:36.484Z,0
2017-05-09T14:42:58.334Z,0
2017-05-09T14:44:20.299Z,0
2017-05-09T14:45:42.408Z,0
2017-05-09T14:47:04.446Z,0
2017-05-09T14:48:26.364Z,0
2017-05-09T14:49:48.527Z,0
2017-05-09T14:51:10.765Z,0
2017-05-09T14:52:37.259Z,0
2017-05-09T15:10:28.718Z,95344.11
2017-05-09T15:11:51.966Z,95341.22
2017-05-09T15:13:16.581Z,95339.25
2017-05-09T15:16:47.939Z,95344.45
2017-05-09T15:18:34.559Z,95343.75
2017-05-09T15:20:27.056Z,95348.81
2017-05-09T15:22:01.289Z,95350.02
2017-05-09T15:23:26.116Z,95350.2
2017-05-09T15:25:02.095Z,95349.97
2017-05-09T15:28:20.280Z,95349.69
2017-05-09T15:30:02.391Z,95349.03
2017-05-09T15:31:37.181Z,95352.89
2017-05-09T15:33:05.878Z,95350.73
2017-05-09T15:34:41.814Z,95346.64
2017-05-09T15:36:09.280Z,95351.17
2017-05-09T15:37:35.890Z,95354.63
2017-05-09T15:41:03.907Z,95341.78
2017-05-09T15:42:37.589Z,95341.02
2017-05-09T15:44:03.043Z,95340.81
2017-05-09T15:45:31.936Z,95343.02
2017-05-09T15:47:00.224Z,95342.95
2017-05-09T15:48:26.340Z,95345.33
2017-05-09T15:50:01.401Z,95330.34
2017-05-09T15:51:27.521Z,95336.72
2017-05-09T15:53:14.587Z,95330.95
2017-05-09T15:55:12.365Z,95334.65
2017-05-09T17:02:06.810Z,95324.82
2017-05-09T17:03:31.923Z,95324.13
2017-05-09T17:08:42.881Z,95324.3
2017-05-09T17:10:08.822Z,95328.43
2017-05-09T17:11:34.781Z,95324.62
2017-05-09T17:14:11.766Z,95326.13
2017-05-09T17:15:54.780Z,95330.84
2017-05-09T17:19:06.051Z,95329.88
2017-05-09T17:20:30.856Z,95329.84
2017-05-09T17:21:56.976Z,95326.54
2017-05-09T17:23:21.969Z,95327.94
2017-05-09T17:24:50.139Z,95329.11
2017-05-09T17:26:22.096Z,95327.54
2017-05-09T17:27:48.242Z,95327.59
2017-05-09T17:30:28.183Z,95324.64
2017-05-09T17:31:53.814Z,95326.81
2017-05-09T17:33:28.806Z,95327.28
2017-05-09T17:35:05.843Z,95328.25
2017-05-09T17:38:08.920Z,95326.59
2017-05-09T17:39:59.981Z,95329.9
2017-05-09T17:41:45.843Z,95329.16
2017-05-09T17:43:28.595Z,95331.91
2017-05-09T17:45:17.142Z,95333.08
2017-05-09T17:46:46.035Z,95331.22
2017-05-09T17:48:13.253Z,95337.49
2017-05-09T17:50:58.153Z,95335.67
2017-05-09T17:54:11.870Z,95335.55
2017-05-09T17:55:40.318Z,95330.56
2017-05-09T17:57:07.688Z,95332.88
2017-05-09T17:58:38.009Z,95329.21
2017-05-09T18:01:13.993Z,95334.63
2017-05-09T18:04:19.308Z,95334.89
2017-05-09T18:05:42.208Z,95334.7
2017-05-09T18:07:14.310Z,95334.66
2017-05-09T18:08:49.871Z,95330.58
2017-05-09T18:10:13.226Z,95335.03
2017-05-09T18:11:38.127Z,95332.05
2017-05-09T18:14:53.345Z,95332.73
2017-05-09T19:36:15.804Z,95352.86
2017-05-09T19:38:01.669Z,95353.53
2017-05-09T19:40:02.324Z,95350.66
2017-05-09T19:48:36.258Z,95357.47
2017-05-09T19:52:12.808Z,95353.97
2017-05-09T19:56:58.259Z,95349.95
2017-05-09T19:58:22.264Z,95353.52
2017-05-09T19:59:46.783Z,95351.81
2017-05-09T20:01:11.308Z,95352.81
2017-05-09T20:02:37.571Z,95349.92
2017-05-09T20:04:03.698Z,95351
2017-05-09T20:05:29.485Z,95351.02
2017-05-09T20:06:57.846Z,95354.38
2017-05-09T20:08:20.848Z,95348.83
2017-05-09T20:21:21.167Z,95346.53
2017-05-09T20:22:55.780Z,95346.92
2017-05-09T20:24:19.991Z,95344.45
2017-05-09T20:25:44.980Z,95341.42
2017-05-09T20:27:15.642Z,95344.82
2017-05-09T20:29:04.515Z,95339.7
2017-05-09T20:41:54.733Z,95332.97
2017-05-09T20:43:21.386Z,95331.89
2017-05-09T20:44:46.631Z,95332.6
2017-05-09T20:46:15.897Z,95330.68
2017-05-09T20:47:39.276Z,95326.89
2017-05-09T20:49:03.051Z,95329.53
2017-05-09T20:50:30.458Z,95326.36
2017-05-09T20:52:06.692Z,95328.03
2017-05-09T20:53:32.575Z,95330.28
2017-05-09T20:55:10.894Z,95327.83
2017-05-09T20:56:45.072Z,95323.84
2017-05-09T21:00:21.186Z,95320.13
2017-05-09T21:01:56.511Z,95324.8
2017-05-09T21:03:32.112Z,95325.58
2017-05-09T21:05:09.008Z,95327.83
2017-05-09T21:06:54.156Z,95325.19
2017-05-09T21:08:51.162Z,95327.61
2017-05-09T21:11:02.627Z,95327.8
2017-05-09T21:19:55.131Z,95318.58
2017-05-09T21:22:05.633Z,95318.25
2017-05-09T21:23:32.222Z,95318.63
2017-05-09T21:25:02.090Z,95319.98
2017-05-09T21:27:50.386Z,95316.28
2017-05-09T21:29:14.646Z,95314.72
2017-05-09T21:30:41.404Z,95313.25
2017-05-09T21:32:13.684Z,95314.22
2017-05-09T21:38:22.565Z,95312.02
2017-05-09T21:42:32.298Z,95312.13
2017-05-09T21:44:38.233Z,95309.62
2017-05-09T21:53:32.272Z,95306.8
2017-05-09T21:54:48.941Z,95304.17
2017-05-09T22:31:33.534Z,95295.92
2017-05-09T22:34:58.780Z,95285.66
2017-05-09T22:36:42.109Z,95286.14
2017-05-09T22:40:14.224Z,95291.25
2017-05-09T22:42:01.328Z,95288.75
2017-05-09T22:43:45.986Z,95291.21
2017-05-09T22:45:38.759Z,95294.48
2017-05-09T22:47:38.357Z,95289.75
2017-05-09T22:49:17.195Z,95293.77
2017-05-09T22:57:05.648Z,95288.24
2017-05-09T23:00:49.849Z,95294.03
2017-05-09T23:02:37.689Z,95289.95
2017-05-09T23:04:47.489Z,95284.2
2017-05-09T23:06:21.574Z,95275.37
2017-05-09T23:08:07.982Z,95278.77
2017-05-09T23:11:32.228Z,95275.8
2017-05-09T23:13:00.280Z,95273.05
2017-05-09T23:14:34.688Z,95277.89
2017-05-09T23:16:12.795Z,95273.83
2017-05-09T23:17:35.764Z,95272.97
2017-05-09T23:19:14.734Z,95270.09
2017-05-09T23:21:04.080Z,95268.34
2017-05-09T23:22:28.215Z,95267.99
2017-05-09T23:24:04.746Z,95271.44
2017-05-09T23:27:05.000Z,95266.42
2017-05-09T23:28:40.086Z,95264.17
2017-05-09T23:30:02.701Z,95267.31
2017-05-09T23:31:27.196Z,95266.62
2017-05-09T23:32:52.558Z,95269.25
2017-05-09T23:34:17.566Z,95277.09
2017-05-09T23:35:52.029Z,95279.33
2017-05-09T23:37:14.444Z,95275.87
2017-05-09T23:38:36.646Z,95274.83
2017-05-09T23:40:03.093Z,95271.98
2017-05-09T23:41:38.631Z,95269.59
2017-05-09T23:43:00.855Z,95268.73
2017-05-09T23:44:24.001Z,95266.72
2017-05-09T23:45:47.459Z,95266.86
2017-05-09T23:47:09.787Z,95264.7
2017-05-09T23:48:35.711Z,95259.87
2017-05-09T23:49:58.234Z,95258.27
2017-05-09T23:51:20.332Z,95256.66
2017-05-09T23:52:43.283Z,95256.83
2017-05-09T23:54:07.150Z,95259.89
2017-05-09T23:55:31.213Z,95259.66
2017-05-09T23:56:53.220Z,95262.05
2017-05-09T23:58:17.814Z,95258.45
2017-05-09T23:59:39.904Z,95263.75
